Time;durP1;ratioP1;P1;durP2;ratioP2;P2;SDS_P1;SDS_P2;PMS_P1;PMS_P2;Temp;Humidity;BMP_temperature;BMP_pressure;BME280_temperature;BME280_humidity;BME280_pressure;Samples;Min_cycle;Max_cycle;Signal;HPM_P1;HPM_P2
2022/06/16 00:00:18;;;;;;;;;;;19.40;94.90;;;;;;5112898;28;19943;-66
2022/06/16 00:02:46;;;;;;;;;;;19.30;95.00;;;;;;5104691;28;19920;-66
2022/06/16 00:05:13;;;;;;;;;;;19.30;95.40;;;;;;5104715;28;19927;-66
2022/06/16 00:07:41;;;;;;;;;;;19.30;95.60;;;;;;5104661;28;20017;-67
2022/06/16 00:10:10;;;;;;;;;;;19.20;95.90;;;;;;5104210;28;19955;-66
2022/06/16 00:12:37;;;;;;;;;;;19.20;95.80;;;;;;5107424;28;19920;-66
2022/06/16 00:15:05;;;;;;;;;;;19.20;95.90;;;;;;5119499;28;19920;-66
2022/06/16 00:17:32;;;;;;;;;;;19.10;96.00;;;;;;5102594;28;19928;-67
2022/06/16 00:20:00;;;;;;;;;;;19.00;96.10;;;;;;5104156;28;19969;-66
2022/06/16 00:22:27;;;;;;;;;;;19.00;96.20;;;;;;5101971;28;19958;-67
2022/06/16 00:24:54;;;;;;;;;;;18.90;96.40;;;;;;5104007;28;20286;-67
2022/06/16 00:27:22;;;;;;;;;;;18.80;96.50;;;;;;5103664;28;19920;-67
2022/06/16 00:29:49;;;;;;;;;;;18.80;96.80;;;;;;5103878;28;19927;-67
2022/06/16 00:32:16;;;;;;;;;;;18.80;96.90;;;;;;5104071;28;19920;-66
2022/06/16 00:34:42;;;;;;;;;;;18.70;97.20;;;;;;5104136;28;20265;-66
2022/06/16 00:37:09;;;;;;;;;;;18.70;97.30;;;;;;5103254;28;20242;-66
2022/06/16 00:39:36;;;;;;;;;;;18.70;97.40;;;;;;5098268;28;20265;-66
2022/06/16 00:42:09;;;;;;;;;;;18.70;97.60;;;;;;5105571;28;20135;-66
2022/06/16 00:44:41;;;;;;;;;;;18.70;97.70;;;;;;5124609;28;19982;-66
2022/06/16 00:47:08;;;;;;;;;;;18.60;97.60;;;;;;5123837;28;19920;-66
2022/06/16 00:49:36;;;;;;;;;;;18.60;97.80;;;;;;5117905;28;19955;-67
2022/06/16 00:52:07;;;;;;;;;;;18.60;97.90;;;;;;5103870;28;19994;-67
2022/06/16 00:54:35;;;;;;;;;;;18.50;98.00;;;;;;5109442;28;19941;-67
2022/06/16 00:57:02;;;;;;;;;;;18.50;98.60;;;;;;5118357;28;19967;-66
2022/06/16 00:59:29;;;;;;;;;;;18.50;98.30;;;;;;5104291;28;20123;-66
2022/06/16 01:01:57;;;;;;;;;;;18.40;98.40;;;;;;5103762;28;19920;-66
2022/06/16 01:07:06;;;;;;;;;;;18.20;98.80;;;;;;5089814;28;19936;-67
2022/06/16 01:09:34;;;;;;;;;;;18.20;99.10;;;;;;5103341;28;20047;-67
2022/06/16 01:15:10;;;;;;;;;;;18.20;99.60;;;;;;5103367;28;19923;-66
2022/06/16 01:17:40;;;;;;;;;;;18.20;99.80;;;;;;5103339;28;19993;-66
2022/06/16 01:20:16;;;;;;;;;;;18.20;99.80;;;;;;5100094;28;20203;-66
2022/06/16 01:22:52;;;;;;;;;;;18.10;99.90;;;;;;5103294;28;19942;-67
2022/06/16 01:25:25;;;;;;;;;;;18.00;99.90;;;;;;5100082;28;19987;-67
2022/06/16 01:28:02;;;;;;;;;;;18.00;99.90;;;;;;5101059;28;20161;-67
2022/06/16 01:30:33;;;;;;;;;;;18.00;99.90;;;;;;5103307;28;19991;-67
2022/06/16 01:33:02;;;;;;;;;;;17.90;99.90;;;;;;5103722;28;20329;-67
2022/06/16 01:35:32;;;;;;;;;;;17.90;99.90;;;;;;5100303;28;19935;-67
2022/06/16 01:38:05;;;;;;;;;;;17.90;99.90;;;;;;5103111;28;19986;-66
2022/06/16 01:40:37;;;;;;;;;;;17.80;99.90;;;;;;5103153;28;19920;-67
2022/06/16 01:43:06;;;;;;;;;;;17.70;99.90;;;;;;5103495;28;19981;-67
2022/06/16 01:45:37;;;;;;;;;;;17.70;99.90;;;;;;5107574;28;19927;-67
2022/06/16 01:48:07;;;;;;;;;;;17.70;99.90;;;;;;5107767;28;19958;-67
2022/06/16 01:50:40;;;;;;;;;;;17.70;99.90;;;;;;5102897;28;20155;-67
2022/06/16 01:53:08;;;;;;;;;;;17.60;99.90;;;;;;5106057;28;19926;-67
2022/06/16 01:55:38;;;;;;;;;;;17.60;99.90;;;;;;5114511;28;19995;-66
2022/06/16 01:58:07;;;;;;;;;;;17.60;99.90;;;;;;5112945;28;19932;-66
2022/06/16 02:00:37;;;;;;;;;;;17.50;99.90;;;;;;5118699;28;19923;-67
2022/06/16 02:03:05;;;;;;;;;;;17.50;99.90;;;;;;5112770;28;19965;-66
2022/06/16 02:05:36;;;;;;;;;;;17.50;99.90;;;;;;5101858;28;19966;-67
2022/06/16 02:08:10;;;;;;;;;;;17.40;99.90;;;;;;5102906;28;19927;-66
2022/06/16 02:10:39;;;;;;;;;;;17.40;99.90;;;;;;5103254;28;19991;-67
2022/06/16 02:13:08;;;;;;;;;;;17.40;99.90;;;;;;5103467;28;19920;-67
2022/06/16 02:15:38;;;;;;;;;;;17.40;99.90;;;;;;5102459;28;19920;-67
2022/06/16 02:18:07;;;;;;;;;;;17.40;99.90;;;;;;5102968;28;20221;-66
2022/06/16 02:20:39;;;;;;;;;;;17.30;99.90;;;;;;5102671;28;20018;-67
2022/06/16 02:23:05;;;;;;;;;;;17.30;99.90;;;;;;5103298;28;19935;-67
2022/06/16 02:25:32;;;;;;;;;;;17.20;99.90;;;;;;5106601;28;19942;-67
2022/06/16 02:27:59;;;;;;;;;;;17.20;99.90;;;;;;5102622;28;19928;-67
2022/06/16 02:30:27;;;;;;;;;;;17.10;99.90;;;;;;5102790;28;20286;-67
2022/06/16 02:33:00;;;;;;;;;;;17.10;99.90;;;;;;5102709;28;20212;-66
2022/06/16 02:35:29;;;;;;;;;;;17.00;99.90;;;;;;5102346;28;19943;-67
2022/06/16 02:38:03;;;;;;;;;;;17.00;99.90;;;;;;5102378;28;19963;-67
2022/06/16 02:40:34;;;;;;;;;;;16.90;99.90;;;;;;5100627;28;19920;-67
2022/06/16 02:43:09;;;;;;;;;;;16.90;99.90;;;;;;5106535;28;20115;-67
2022/06/16 02:45:39;;;;;;;;;;;16.90;99.90;;;;;;5105421;28;19920;-66
2022/06/16 02:48:09;;;;;;;;;;;16.90;99.90;;;;;;5106318;28;19920;-67
2022/06/16 02:50:39;;;;;;;;;;;16.90;99.90;;;;;;5114600;28;19956;-67
2022/06/16 02:53:12;;;;;;;;;;;16.80;99.90;;;;;;5123060;28;19955;-67
2022/06/16 02:55:41;;;;;;;;;;;16.80;99.90;;;;;;5113983;28;19955;-67
2022/06/16 02:58:08;;;;;;;;;;;16.80;99.90;;;;;;5114493;28;19920;-66
2022/06/16 03:00:37;;;;;;;;;;;16.70;99.90;;;;;;5116787;28;19956;-67
2022/06/16 03:03:18;;;;;;;;;;;16.60;99.90;;;;;;5105733;28;19984;-67
2022/06/16 03:05:45;;;;;;;;;;;16.60;99.90;;;;;;5105648;28;19991;-67
2022/06/16 03:08:12;;;;;;;;;;;16.50;99.90;;;;;;5105510;28;19962;-67
2022/06/16 03:10:53;;;;;;;;;;;16.50;99.90;;;;;;5102151;28;19920;-67
2022/06/16 03:13:21;;;;;;;;;;;16.50;99.90;;;;;;5105847;28;19963;-67
2022/06/16 03:15:48;;;;;;;;;;;16.40;99.90;;;;;;5105165;28;19920;-66
2022/06/16 03:18:15;;;;;;;;;;;16.40;99.90;;;;;;5105205;28;19973;-67
2022/06/16 03:20:43;;;;;;;;;;;16.30;99.90;;;;;;5105651;28;20184;-67
2022/06/16 03:23:10;;;;;;;;;;;16.30;99.90;;;;;;5105849;28;19999;-67
2022/06/16 03:25:37;;;;;;;;;;;16.30;99.90;;;;;;5104549;28;19966;-67
2022/06/16 03:28:04;;;;;;;;;;;16.30;99.90;;;;;;5105842;28;19962;-67
2022/06/16 03:30:31;;;;;;;;;;;16.20;99.90;;;;;;5105302;28;19926;-67
2022/06/16 03:32:58;;;;;;;;;;;16.20;99.90;;;;;;5105586;28;19927;-67
2022/06/16 03:35:24;;;;;;;;;;;16.20;99.90;;;;;;5105097;28;20275;-67
2022/06/16 03:37:52;;;;;;;;;;;16.10;99.90;;;;;;5105640;28;19974;-67
2022/06/16 03:40:20;;;;;;;;;;;16.10;99.90;;;;;;5104858;28;20167;-66
2022/06/16 03:42:47;;;;;;;;;;;16.10;99.90;;;;;;5105237;28;19987;-67
2022/06/16 03:45:14;;;;;;;;;;;16.10;99.90;;;;;;5104636;28;19955;-67
2022/06/16 03:47:40;;;;;;;;;;;16.10;99.90;;;;;;5104890;28;20123;-67
2022/06/16 03:50:08;;;;;;;;;;;16.10;99.90;;;;;;5104794;28;20202;-66
2022/06/16 03:52:34;;;;;;;;;;;16.10;99.90;;;;;;5120638;28;19920;-66
2022/06/16 03:55:02;;;;;;;;;;;16.10;99.90;;;;;;5116815;28;19920;-66
2022/06/16 03:57:29;;;;;;;;;;;16.10;99.90;;;;;;5123833;28;19955;-66
2022/06/16 03:59:56;;;;;;;;;;;16.10;99.90;;;;;;5117132;28;19951;-66
2022/06/16 04:02:22;;;;;;;;;;;16.00;99.90;;;;;;5121850;28;19920;-66
2022/06/16 04:04:49;;;;;;;;;;;16.00;99.90;;;;;;5104928;28;20183;-66
2022/06/16 04:07:16;;;;;;;;;;;16.00;99.90;;;;;;5104016;28;20271;-66
2022/06/16 04:09:42;;;;;;;;;;;15.90;99.90;;;;;;5104553;28;20219;-66
2022/06/16 04:12:10;;;;;;;;;;;15.90;99.90;;;;;;5104729;28;19959;-66
2022/06/16 04:14:38;;;;;;;;;;;15.80;99.90;;;;;;5105032;28;20223;-66
2022/06/16 04:17:05;;;;;;;;;;;15.90;99.90;;;;;;5103619;28;19934;-66
2022/06/16 04:19:31;;;;;;;;;;;15.80;99.90;;;;;;5104198;28;19928;-66
2022/06/16 04:21:58;;;;;;;;;;;15.80;99.90;;;;;;5104287;28;19920;-66
2022/06/16 04:24:25;;;;;;;;;;;15.80;99.90;;;;;;5104520;28;19954;-66
2022/06/16 04:26:52;;;;;;;;;;;15.80;99.90;;;;;;5103692;28;19920;-66
2022/06/16 04:29:20;;;;;;;;;;;15.90;99.90;;;;;;5104387;28;20234;-66
2022/06/16 04:31:47;;;;;;;;;;;15.90;99.90;;;;;;5104302;28;19928;-66
2022/06/16 04:34:13;;;;;;;;;;;15.90;99.90;;;;;;5097557;28;19958;-66
2022/06/16 04:36:40;;;;;;;;;;;16.00;99.90;;;;;;5103407;28;20022;-66
2022/06/16 04:39:07;;;;;;;;;;;16.00;99.90;;;;;;5103714;28;19920;-66
2022/06/16 04:41:35;;;;;;;;;;;16.10;99.90;;;;;;5103957;28;19920;-66
2022/06/16 04:44:02;;;;;;;;;;;16.10;99.90;;;;;;5101457;28;19920;-66
2022/06/16 04:46:31;;;;;;;;;;;16.20;99.90;;;;;;5102599;28;19939;-66
2022/06/16 04:48:57;;;;;;;;;;;16.30;99.90;;;;;;5103624;28;19923;-66
2022/06/16 04:51:24;;;;;;;;;;;16.40;99.90;;;;;;5103289;28;20234;-66
2022/06/16 04:53:51;;;;;;;;;;;16.40;99.90;;;;;;5109424;28;20365;-66
2022/06/16 04:56:17;;;;;;;;;;;16.50;99.90;;;;;;5104907;28;19931;-66
2022/06/16 04:58:44;;;;;;;;;;;16.50;99.90;;;;;;5120129;28;19947;-66
2022/06/16 05:01:11;;;;;;;;;;;16.60;99.90;;;;;;5083731;28;19969;-66
2022/06/16 05:03:39;;;;;;;;;;;16.60;99.90;;;;;;5096629;28;19950;-66
2022/06/16 05:06:05;;;;;;;;;;;16.70;99.90;;;;;;5100231;28;19985;-66
2022/06/16 05:08:32;;;;;;;;;;;16.90;99.90;;;;;;5103518;28;20092;-66
2022/06/16 05:10:59;;;;;;;;;;;17.00;99.90;;;;;;5103515;28;19943;-66
2022/06/16 05:13:25;;;;;;;;;;;17.10;99.90;;;;;;5103461;28;19920;-66
2022/06/16 05:15:53;;;;;;;;;;;17.20;99.90;;;;;;5102648;28;19958;-66
2022/06/16 05:18:20;;;;;;;;;;;17.30;99.90;;;;;;5103353;28;19952;-66
2022/06/16 05:20:48;;;;;;;;;;;17.40;99.90;;;;;;5103800;28;19920;-66
2022/06/16 05:23:14;;;;;;;;;;;17.50;99.90;;;;;;5103724;28;19956;-67
2022/06/16 05:25:41;;;;;;;;;;;17.60;99.90;;;;;;5102254;28;20219;-67
2022/06/16 05:28:08;;;;;;;;;;;17.70;99.90;;;;;;5103347;28;19920;-67
2022/06/16 05:30:35;;;;;;;;;;;17.90;99.90;;;;;;5103505;28;19991;-66
2022/06/16 05:33:02;;;;;;;;;;;18.00;99.90;;;;;;5103316;28;19920;-66
2022/06/16 05:35:29;;;;;;;;;;;18.10;99.90;;;;;;5093839;28;19928;-66
2022/06/16 05:37:57;;;;;;;;;;;18.20;99.90;;;;;;5103212;28;19935;-66
2022/06/16 05:40:24;;;;;;;;;;;18.30;99.90;;;;;;5103194;28;19920;-67
2022/06/16 05:42:51;;;;;;;;;;;18.50;99.90;;;;;;5102976;28;19979;-66
2022/06/16 05:45:17;;;;;;;;;;;18.70;99.90;;;;;;5102321;28;19927;-65
2022/06/16 05:47:44;;;;;;;;;;;18.80;99.90;;;;;;5103143;28;20116;-66
2022/06/16 05:50:11;;;;;;;;;;;19.00;99.90;;;;;;5106923;28;19927;-66
2022/06/16 05:52:37;;;;;;;;;;;19.00;99.90;;;;;;5107714;28;19987;-66
2022/06/16 05:55:06;;;;;;;;;;;19.10;99.90;;;;;;5102198;28;19920;-66
2022/06/16 05:57:33;;;;;;;;;;;19.20;99.90;;;;;;5088730;28;19955;-66
2022/06/16 05:59:59;;;;;;;;;;;19.40;99.90;;;;;;5106310;28;20243;-66
2022/06/16 06:02:26;;;;;;;;;;;19.50;99.90;;;;;;5102510;28;19955;-66
2022/06/16 06:04:53;;;;;;;;;;;19.60;99.90;;;;;;5102507;28;19928;-66
2022/06/16 06:07:19;;;;;;;;;;;19.70;99.90;;;;;;5102120;28;19958;-66
2022/06/16 06:18:15;;;;;;;;;;;20.00;99.90;;;;;;5104604;28;19988;-66
2022/06/16 06:20:42;;;;;;;;;;;20.20;99.90;;;;;;5106911;28;19942;-66
2022/06/16 06:23:08;;;;;;;;;;;20.30;99.90;;;;;;5104310;28;19979;-66
2022/06/16 06:25:35;;;;;;;;;;;20.40;99.90;;;;;;5097416;28;20107;-67
2022/06/16 06:28:03;;;;;;;;;;;20.40;99.90;;;;;;5094235;28;19921;-67
2022/06/16 06:30:31;;;;;;;;;;;20.50;99.90;;;;;;5095142;28;20236;-67
2022/06/16 06:32:58;;;;;;;;;;;20.50;99.90;;;;;;5106474;28;19958;-66
2022/06/16 06:35:25;;;;;;;;;;;20.60;99.90;;;;;;5105668;28;19928;-66
2022/06/16 06:37:52;;;;;;;;;;;20.60;99.90;;;;;;5105409;28;19927;-67
2022/06/16 06:40:20;;;;;;;;;;;20.70;99.90;;;;;;5106132;28;19927;-66
2022/06/16 06:42:47;;;;;;;;;;;20.80;99.90;;;;;;5106564;28;19955;-66
2022/06/16 06:45:15;;;;;;;;;;;20.90;99.90;;;;;;5105372;28;20019;-66
2022/06/16 06:47:41;;;;;;;;;;;21.00;99.90;;;;;;5105940;28;20171;-66
2022/06/16 06:50:08;;;;;;;;;;;21.20;99.90;;;;;;5114724;28;19946;-66
2022/06/16 06:52:35;;;;;;;;;;;21.40;99.90;;;;;;5121950;28;19920;-66
2022/06/16 06:55:02;;;;;;;;;;;21.60;99.90;;;;;;5109070;28;19920;-66
2022/06/16 06:57:30;;;;;;;;;;;21.90;99.90;;;;;;5110239;28;19951;-67
2022/06/16 06:59:57;;;;;;;;;;;22.10;99.90;;;;;;5115971;28;20246;-66
2022/06/16 07:02:25;;;;;;;;;;;22.30;99.90;;;;;;5105772;28;20231;-66
2022/06/16 07:04:52;;;;;;;;;;;22.40;99.90;;;;;;5103965;28;19920;-70
2022/06/16 07:07:21;;;;;;;;;;;22.60;99.90;;;;;;5105226;28;19961;-68
2022/06/16 07:09:47;;;;;;;;;;;22.60;99.90;;;;;;5105359;28;20234;-68
2022/06/16 07:12:14;;;;;;;;;;;22.80;99.90;;;;;;5105932;28;19952;-68
2022/06/16 07:14:41;;;;;;;;;;;22.80;99.90;;;;;;5105821;28;19962;-68
2022/06/16 07:17:07;;;;;;;;;;;22.90;99.90;;;;;;5105062;28;19983;-65
2022/06/16 07:19:37;;;;;;;;;;;22.90;99.90;;;;;;5103873;28;19935;-66
2022/06/16 07:22:04;;;;;;;;;;;22.90;99.90;;;;;;5103179;28;19920;-65
2022/06/16 07:24:31;;;;;;;;;;;23.00;99.90;;;;;;5105499;28;19921;-65
2022/06/16 07:26:58;;;;;;;;;;;23.10;99.90;;;;;;5110598;22;19920;-65
2022/06/16 07:29:24;;;;;;;;;;;23.10;99.90;;;;;;5105436;28;20222;-65
2022/06/16 07:31:51;;;;;;;;;;;23.20;99.90;;;;;;5105633;28;19966;-65
2022/06/16 07:34:18;;;;;;;;;;;23.30;99.90;;;;;;5105299;28;19955;-65
2022/06/16 07:36:46;;;;;;;;;;;23.40;99.90;;;;;;5104961;28;19964;-66
2022/06/16 07:39:13;;;;;;;;;;;23.50;99.90;;;;;;5099789;28;19971;-65
2022/06/16 07:41:39;;;;;;;;;;;23.50;99.90;;;;;;5092522;28;19951;-66
2022/06/16 07:44:07;;;;;;;;;;;23.60;99.90;;;;;;5100912;28;19978;-65
2022/06/16 07:46:33;;;;;;;;;;;23.80;99.90;;;;;;5091596;28;20257;-67
2022/06/16 07:49:00;;;;;;;;;;;23.80;99.90;;;;;;5101957;28;19928;-67
2022/06/16 07:51:27;;;;;;;;;;;23.90;99.90;;;;;;5100387;28;20227;-67
2022/06/16 07:53:55;;;;;;;;;;;24.00;99.90;;;;;;5100015;28;20182;-66
2022/06/16 07:56:22;;;;;;;;;;;24.10;99.90;;;;;;5095817;28;19963;-65
2022/06/16 07:58:49;;;;;;;;;;;24.20;99.90;;;;;;5113949;28;19955;-65
2022/06/16 08:01:16;;;;;;;;;;;24.30;99.90;;;;;;5105664;28;19926;-65
2022/06/16 08:03:43;;;;;;;;;;;24.40;99.90;;;;;;5104109;28;19954;-65
2022/06/16 08:06:10;;;;;;;;;;;24.50;99.90;;;;;;5104071;28;19956;-65
2022/06/16 08:08:37;;;;;;;;;;;24.60;99.90;;;;;;5100268;28;20164;-65
2022/06/16 08:11:06;;;;;;;;;;;24.60;99.90;;;;;;5102475;28;19927;-64
2022/06/16 08:13:33;;;;;;;;;;;24.70;99.90;;;;;;5104095;28;19966;-65
2022/06/16 08:16:00;;;;;;;;;;;24.80;99.90;;;;;;5084439;28;19920;-65
2022/06/16 08:18:26;;;;;;;;;;;24.90;99.90;;;;;;5092136;28;19987;-65
2022/06/16 08:20:53;;;;;;;;;;;25.00;99.90;;;;;;5106872;28;19920;-64
2022/06/16 08:23:21;;;;;;;;;;;25.10;99.90;;;;;;5125115;28;19982;-64
2022/06/16 08:25:48;;;;;;;;;;;25.10;99.90;;;;;;5105208;28;19920;-64
2022/06/16 08:28:17;;;;;;;;;;;25.10;99.90;;;;;;5103910;28;19927;-67
2022/06/16 08:30:44;;;;;;;;;;;25.20;99.90;;;;;;5104471;28;19988;-67
2022/06/16 08:33:13;;;;;;;;;;;25.20;99.90;;;;;;5103980;28;20178;-67
2022/06/16 08:35:41;;;;;;;;;;;25.20;99.90;;;;;;5090828;28;20207;-66
2022/06/16 08:38:07;;;;;;;;;;;25.20;99.90;;;;;;5102557;28;19924;-67
2022/06/16 08:40:35;;;;;;;;;;;25.20;99.90;;;;;;5112719;28;19951;-68
2022/06/16 08:43:05;;;;;;;;;;;25.20;99.90;;;;;;5101693;28;19947;-67
2022/06/16 08:45:35;;;;;;;;;;;25.20;99.90;;;;;;5103878;28;19920;-68
2022/06/16 08:48:19;;;;;;;;;;;25.20;99.90;;;;;;5104251;28;19927;-66
2022/06/16 08:50:48;;;;;;;;;;;25.20;99.90;;;;;;5109058;28;19920;-64
2022/06/16 08:53:21;;;;;;;;;;;25.30;99.90;;;;;;5121824;28;19920;-65
2022/06/16 08:55:52;;;;;;;;;;;25.30;99.90;;;;;;5121556;28;19962;-65
2022/06/16 08:58:23;;;;;;;;;;;25.30;99.90;;;;;;5122936;28;19927;-67
2022/06/16 09:00:54;;;;;;;;;;;25.40;99.90;;;;;;5124434;28;20230;-66
2022/06/16 09:03:22;;;;;;;;;;;25.50;99.90;;;;;;5113102;28;19952;-68
2022/06/16 09:05:52;;;;;;;;;;;25.60;99.90;;;;;;5103924;28;19954;-66
2022/06/16 09:08:22;;;;;;;;;;;25.60;99.90;;;;;;5103645;28;19943;-67
2022/06/16 09:10:54;;;;;;;;;;;25.80;99.90;;;;;;5102480;28;19920;-67
2022/06/16 09:13:28;;;;;;;;;;;26.00;99.90;;;;;;5104025;28;19919;-68
2022/06/16 09:16:02;;;;;;;;;;;26.10;99.90;;;;;;5103758;28;19920;-67
2022/06/16 09:18:48;;;;;;;;;;;26.20;99.90;;;;;;5103526;28;19987;-66
2022/06/16 09:21:19;;;;;;;;;;;26.20;99.90;;;;;;5102674;28;20445;-66
2022/06/16 09:24:02;;;;;;;;;;;26.30;99.90;;;;;;5094893;28;19927;-67
2022/06/16 09:26:31;;;;;;;;;;;26.30;99.90;;;;;;5097224;28;19969;-66
2022/06/16 09:29:01;;;;;;;;;;;26.40;99.90;;;;;;5103846;28;19920;-66
2022/06/16 09:31:38;;;;;;;;;;;26.40;97.60;;;;;;5103433;28;20222;-66
2022/06/16 09:34:07;;;;;;;;;;;26.50;97.90;;;;;;5103315;28;19920;-66
2022/06/16 09:36:36;;;;;;;;;;;26.50;98.50;;;;;;5098265;28;19920;-66
2022/06/16 09:39:06;;;;;;;;;;;26.50;97.60;;;;;;5103624;28;19958;-66
2022/06/16 09:44:31;;;;;;;;;;;26.60;97.90;;;;;;5066987;28;19916;-66
2022/06/16 09:47:02;;;;;;;;;;;26.70;97.10;;;;;;5102878;28;19920;-66
2022/06/16 09:49:31;;;;;;;;;;;26.80;95.40;;;;;;5094287;28;19927;-66
2022/06/16 09:52:00;;;;;;;;;;;26.90;94.70;;;;;;5087220;28;20222;-66
2022/06/16 09:54:30;;;;;;;;;;;27.00;94.70;;;;;;5109605;28;19955;-66
2022/06/16 09:57:00;;;;;;;;;;;27.00;94.30;;;;;;5125398;28;20239;-66
2022/06/16 09:59:27;;;;;;;;;;;27.10;94.60;;;;;;5127993;28;19920;-66
2022/06/16 10:01:56;;;;;;;;;;;27.20;94.90;;;;;;5118278;28;19951;-65
2022/06/16 10:04:24;;;;;;;;;;;27.20;95.60;;;;;;5107686;28;19958;-66
2022/06/16 10:06:55;;;;;;;;;;;27.20;95.50;;;;;;5107293;28;19982;-66
2022/06/16 10:09:24;;;;;;;;;;;27.30;95.40;;;;;;5107325;28;19920;-66
2022/06/16 10:11:56;;;;;;;;;;;27.40;94.70;;;;;;5107625;28;19920;-66
2022/06/16 10:14:27;;;;;;;;;;;27.40;94.40;;;;;;5106018;28;20120;-66
2022/06/16 10:16:55;;;;;;;;;;;27.50;94.00;;;;;;5086835;28;19955;-66
2022/06/16 10:19:24;;;;;;;;;;;27.60;93.70;;;;;;5086796;28;19920;-66
2022/06/16 10:21:51;;;;;;;;;;;27.60;94.10;;;;;;5087026;28;19956;-67
2022/06/16 10:24:19;;;;;;;;;;;27.70;93.60;;;;;;5086789;28;19988;-66
2022/06/16 10:26:46;;;;;;;;;;;27.70;93.70;;;;;;5091934;28;19928;-66
2022/06/16 10:29:20;;;;;;;;;;;27.80;93.10;;;;;;5100359;28;20085;-66
2022/06/16 10:31:48;;;;;;;;;;;27.60;93.00;;;;;;5111656;28;20279;-66
2022/06/16 10:34:19;;;;;;;;;;;27.60;93.20;;;;;;5106776;28;20242;-66
2022/06/16 10:36:50;;;;;;;;;;;27.60;92.80;;;;;;5106017;28;19958;-66
2022/06/16 10:39:18;;;;;;;;;;;27.60;93.00;;;;;;5086781;28;19955;-66
2022/06/16 10:41:51;;;;;;;;;;;27.70;92.50;;;;;;5086687;28;19951;-66
2022/06/16 10:44:18;;;;;;;;;;;27.80;92.40;;;;;;5086354;28;19920;-65
2022/06/16 10:46:48;;;;;;;;;;;27.90;91.60;;;;;;5085781;28;19952;-66
2022/06/16 10:49:16;;;;;;;;;;;27.90;92.40;;;;;;5085790;28;19982;-66
2022/06/16 10:51:50;;;;;;;;;;;28.00;91.70;;;;;;5085335;28;19920;-66
2022/06/16 10:54:21;;;;;;;;;;;28.00;91.80;;;;;;5089449;28;20251;-66
2022/06/16 10:56:48;;;;;;;;;;;28.10;93.00;;;;;;5105508;28;19956;-66
2022/06/16 10:59:18;;;;;;;;;;;28.20;92.40;;;;;;5106277;28;20223;-66
2022/06/16 11:01:47;;;;;;;;;;;28.30;90.80;;;;;;5105740;28;20136;-66
2022/06/16 11:04:18;;;;;;;;;;;28.50;91.40;;;;;;5106207;28;19920;-66
2022/06/16 11:06:47;;;;;;;;;;;28.60;92.30;;;;;;5086598;28;19952;-66
2022/06/16 11:09:17;;;;;;;;;;;28.60;92.50;;;;;;5089641;28;20119;-66
2022/06/16 11:11:52;;;;;;;;;;;28.60;92.20;;;;;;5103495;28;19927;-65
2022/06/16 11:14:21;;;;;;;;;;;28.70;92.90;;;;;;5085652;28;19920;-65
2022/06/16 11:16:50;;;;;;;;;;;28.80;92.20;;;;;;5085182;28;19927;-66
2022/06/16 11:19:19;;;;;;;;;;;28.70;91.70;;;;;;5095268;28;19946;-66
2022/06/16 11:21:46;;;;;;;;;;;28.90;91.90;;;;;;5097017;28;19932;-66
2022/06/16 11:24:23;;;;;;;;;;;29.00;91.60;;;;;;5095997;28;20119;-66
2022/06/16 11:26:53;;;;;;;;;;;29.00;90.20;;;;;;5085414;28;19959;-66
2022/06/16 11:29:23;;;;;;;;;;;28.90;90.90;;;;;;5085496;28;20222;-66
2022/06/16 11:32:01;;;;;;;;;;;29.00;90.90;;;;;;5085762;28;19942;-66
2022/06/16 11:34:29;;;;;;;;;;;29.20;91.00;;;;;;5098154;28;20234;-66
2022/06/16 11:37:00;;;;;;;;;;;29.20;90.00;;;;;;5088308;28;19927;-67
2022/06/16 11:39:36;;;;;;;;;;;29.20;89.30;;;;;;5086763;28;19924;-74
2022/06/16 11:42:03;;;;;;;;;;;29.20;88.40;;;;;;5094242;28;19920;-68
2022/06/16 11:44:40;;;;;;;;;;;29.30;89.80;;;;;;5105293;28;20229;-68
2022/06/16 11:47:11;;;;;;;;;;;29.30;89.40;;;;;;5104237;28;20162;-68
2022/06/16 11:49:41;;;;;;;;;;;29.40;90.00;;;;;;5105286;28;19956;-69
2022/06/16 11:52:13;;;;;;;;;;;29.40;88.40;;;;;;5105112;28;19920;-69
2022/06/16 11:54:49;;;;;;;;;;;29.50;87.50;;;;;;5105257;28;20171;-68
2022/06/16 11:57:22;;;;;;;;;;;29.60;87.20;;;;;;5104611;28;19962;-68
2022/06/16 11:59:57;;;;;;;;;;;29.80;89.20;;;;;;5105233;28;19952;-68
2022/06/16 12:02:35;;;;;;;;;;;30.00;90.00;;;;;;5105319;28;19959;-68
2022/06/16 12:05:07;;;;;;;;;;;30.00;87.50;;;;;;5105104;28;19951;-68
2022/06/16 12:07:40;;;;;;;;;;;30.10;87.90;;;;;;5104626;28;20246;-68
2022/06/16 12:10:14;;;;;;;;;;;30.00;86.80;;;;;;5104983;28;19920;-68
2022/06/16 12:12:43;;;;;;;;;;;30.00;86.90;;;;;;5103801;28;19943;-68
2022/06/16 12:15:14;;;;;;;;;;;30.20;86.90;;;;;;5104776;28;19920;-68
2022/06/16 12:17:44;;;;;;;;;;;30.30;86.10;;;;;;5104586;28;20115;-68
2022/06/16 12:20:15;;;;;;;;;;;30.40;86.40;;;;;;5084687;28;19927;-68
2022/06/16 12:22:46;;;;;;;;;;;30.50;85.80;;;;;;5113244;28;19920;-68
2022/06/16 12:25:17;;;;;;;;;;;30.50;86.70;;;;;;5104461;28;19972;-68
2022/06/16 12:27:46;;;;;;;;;;;30.50;87.20;;;;;;5104450;28;20139;-68
2022/06/16 12:30:15;;;;;;;;;;;30.70;85.30;;;;;;5105234;28;19963;-68
2022/06/16 12:32:48;;;;;;;;;;;30.90;85.80;;;;;;5105549;28;19951;-68
2022/06/16 12:35:18;;;;;;;;;;;30.90;87.00;;;;;;5105058;28;19962;-68
2022/06/16 12:37:48;;;;;;;;;;;31.00;85.60;;;;;;5104550;28;19927;-68
2022/06/16 12:40:21;;;;;;;;;;;31.00;86.80;;;;;;5104448;28;20237;-68
2022/06/16 12:42:50;;;;;;;;;;;31.00;85.50;;;;;;5104694;28;19919;-68
2022/06/16 12:45:18;;;;;;;;;;;31.00;86.60;;;;;;5104101;28;19951;-68
2022/06/16 12:47:47;;;;;;;;;;;30.90;85.30;;;;;;5104255;28;19991;-68
2022/06/16 12:50:16;;;;;;;;;;;30.80;84.40;;;;;;5104260;28;19959;-68
2022/06/16 12:52:45;;;;;;;;;;;30.50;85.00;;;;;;5099467;28;19971;-68
2022/06/16 12:55:15;;;;;;;;;;;30.60;84.80;;;;;;5083479;28;19962;-68
2022/06/16 12:57:44;;;;;;;;;;;30.70;85.00;;;;;;5083522;28;19955;-69
2022/06/16 13:00:13;;;;;;;;;;;30.80;84.10;;;;;;5083792;28;19921;-69
2022/06/16 13:02:43;;;;;;;;;;;30.70;84.00;;;;;;5083615;28;19927;-68
2022/06/16 13:05:10;;;;;;;;;;;30.50;84.90;;;;;;5083355;28;20334;-68
2022/06/16 13:07:38;;;;;;;;;;;30.30;85.50;;;;;;5082770;28;19920;-68
2022/06/16 13:10:05;;;;;;;;;;;30.10;86.20;;;;;;5083317;28;20115;-68
2022/06/16 13:12:34;;;;;;;;;;;30.10;87.10;;;;;;5083192;28;20460;-68
2022/06/16 13:15:06;;;;;;;;;;;30.40;83.40;;;;;;5083469;28;19956;-69
2022/06/16 13:17:35;;;;;;;;;;;30.40;83.90;;;;;;5082550;28;20235;-69
2022/06/16 13:20:10;;;;;;;;;;;30.60;84.30;;;;;;5082253;28;20246;-69
2022/06/16 13:22:39;;;;;;;;;;;30.60;85.20;;;;;;5083611;28;19992;-68
2022/06/16 13:25:08;;;;;;;;;;;31.00;86.70;;;;;;5083159;28;19956;-68
2022/06/16 13:27:40;;;;;;;;;;;31.10;84.50;;;;;;5106886;22;19920;-86
2022/06/16 13:30:20;;;;;;;;;;;31.30;84.20;;;;;;5104091;28;20269;-86
2022/06/16 13:33:01;;;;;;;;;;;31.30;83.40;;;;;;5104529;28;19986;-86
2022/06/16 13:35:45;;;;;;;;;;;31.30;80.00;;;;;;5103589;28;20332;-85
2022/06/16 13:38:20;;;;;;;;;;;31.10;80.90;;;;;;5103847;28;19958;-85
2022/06/16 13:40:48;;;;;;;;;;;31.10;82.40;;;;;;5103960;28;19920;-86
2022/06/16 13:43:16;;;;;;;;;;;31.10;81.20;;;;;;5104493;28;19920;-86
2022/06/16 13:45:58;;;;;;;;;;;31.20;80.50;;;;;;5104069;28;19965;-85
2022/06/16 13:48:46;;;;;;;;;;;31.20;78.90;;;;;;5104054;28;19927;-85
2022/06/16 13:51:30;;;;;;;;;;;31.30;80.50;;;;;;5099057;28;19951;-85
2022/06/16 13:53:58;;;;;;;;;;;31.40;77.20;;;;;;5087061;28;19920;-86
2022/06/16 13:56:30;;;;;;;;;;;31.40;76.60;;;;;;5103701;28;19921;-86
2022/06/16 13:59:03;;;;;;;;;;;31.50;77.80;;;;;;5103681;28;19920;-86
2022/06/16 14:01:33;;;;;;;;;;;31.60;76.40;;;;;;5103849;28;20100;-86
2022/06/16 14:04:06;;;;;;;;;;;31.50;78.10;;;;;;5104178;28;19927;-85
2022/06/16 14:06:36;;;;;;;;;;;31.60;76.50;;;;;;5103645;28;19920;-86
2022/06/16 14:09:09;;;;;;;;;;;31.50;78.40;;;;;;5103891;28;20215;-86
2022/06/16 14:11:36;;;;;;;;;;;31.60;78.20;;;;;;5103612;28;19987;-86
2022/06/16 14:14:16;;;;;;;;;;;31.70;76.80;;;;;;5104387;28;19943;-86
2022/06/16 14:17:00;;;;;;;;;;;31.70;77.40;;;;;;5103510;28;19920;-87
2022/06/16 14:19:29;;;;;;;;;;;31.90;76.00;;;;;;5104281;28;20127;-87
2022/06/16 14:21:59;;;;;;;;;;;31.90;75.70;;;;;;5103660;28;19920;-86
2022/06/16 14:24:40;;;;;;;;;;;32.10;76.20;;;;;;5103524;28;19966;-86
2022/06/16 14:27:10;;;;;;;;;;;32.20;76.70;;;;;;5107468;28;19984;-86
2022/06/16 14:29:37;;;;;;;;;;;32.40;73.40;;;;;;5123755;28;20157;-86
2022/06/16 14:32:07;;;;;;;;;;;32.30;72.90;;;;;;5123517;28;19947;-85
2022/06/16 14:34:36;;;;;;;;;;;32.40;74.30;;;;;;5124326;28;20215;-85
2022/06/16 14:37:04;;;;;;;;;;;32.50;73.30;;;;;;5127934;28;19950;-86
2022/06/16 14:39:33;;;;;;;;;;;32.40;74.40;;;;;;5128581;28;19951;-85
2022/06/16 14:42:01;;;;;;;;;;;32.30;74.90;;;;;;5128063;28;19920;-85
2022/06/16 14:44:30;;;;;;;;;;;32.00;72.70;;;;;;5127909;28;20100;-85